Elnora, IN (47529)

10:50 PM EST en Febrero 13, 2016 (GMT -0500)
KINSANDB2 | | Change Station
CLOSE
Current Station
Estación meteorológica personal
Location: Sandborn, IN
Altura: 479 ft
Estaciones meteorológicas cercanas
Aviso en curso: Winter Weather Advisory

Alt 479 ft 38.90 °N, 87.18 °W | Updated 12 minutes ago

Despejado
Despejado
19.3 ° F
Sensación térmica 13 ° F
N
4.0
Viento Variable Viento desde Este
Gusts 5.0 mph

Hoy
Alta -- | Baja -- ° F
--% Posibilidad de precipitaciones
Ayer
Alta -- | Baja -- ° F
Precip. -- pul
Presión 30.49 pul
Visibilidad 10.0 Millas
Nubes Despejado
Vientos helados 13 ° F
Punto de rocío 7 ° F
Humedad 58%
Precipitaciones 0.00 pul
Espesor de la nieve No disponible.
7:42 AM 6:23 PM
Creciente, 37% visible
METAR KDCY 140335Z AUTO 05005KT 10SM CLR M07/M18 A3049 RMK AO2 T10711176
Presión 30.49 pul
Visibilidad 10.0 Millas
Nubes Despejado
Vientos helados 13 ° F
Punto de rocío 7 ° F
Humedad 58%
Precipitaciones 0.00 pul
Espesor de la nieve No disponible.
7:42 AM 6:23 PM
Creciente, 37% visible
METAR KDCY 140335Z AUTO 05005KT 10SM CLR M07/M18 A3049 RMK AO2 T10711176

10-Day Weather Forecast

Almanac

Astronomía

Feb. 13, 2016 Salida Puesta
Hora real
Crepúsculo civil
Crepúsculo náutico
Crepúsculo astronómico
Luna
Horas de luz
Horas de luz
Tomorrow will be .
, % of the Moon is Illuminated

Extremos de hoy

Máximos del estado Bajos del estado

Community

WunderPhotos

Upload Photos

1,892,738 ¡fotos cargadas!

WunderBlog® & News

Nearby

Calidad del aire

  Calidad del aire Índice AQ Contaminante
Not available.

Grosos de nieve

Estación Profundido Altura

Actividad de terremotos

Ciudad Distance Mag. Tiempo y dato
Magnitud mínima muestra es 2,5.

Temperaturas de aguas costeras

Lugar Temperatura

Stations

Estaciones meteorológicas cercanas

Ubicación de la estación Temp. Vientos helados Punto de rocío Humedad Viento Precip. Alt Actualizado Tipo
                   

Watches & Warnings

Winter Weather Advisory
Issued: 9:51 PM EST Feb. 13, 2016 – National Weather Service

... Winter Weather Advisory remains in effect from 4 am Sunday to
midnight EST Sunday night...

* timing... snow beginning towards sunrise Sunday and then
diminishing Sunday night.

* Main impact... snow ... covered roads and poor travel
conditions. Snow accumulations of up to three inches are
possible.

Precautionary/preparedness actions...

A Winter Weather Advisory for snow means that periods of snow
will cause primarily travel difficulties. Be prepared for snow
covered roads and limited visibilities... and use caution while
driving.